createdAt,value
2022-11-07T00:11:32.831Z,6.99
2022-11-07T00:23:33.236Z,6.91
2022-11-07T00:35:33.740Z,6.99
2022-11-07T00:47:34.179Z,7.11
2022-11-07T00:59:34.627Z,6.97
2022-11-07T01:11:35.070Z,7.00
2022-11-07T01:23:35.509Z,6.91
2022-11-07T01:35:35.943Z,6.80
2022-11-07T01:47:36.420Z,6.90
2022-11-07T01:59:36.910Z,6.88
2022-11-07T02:11:37.354Z,7.02
2022-11-07T02:23:38.131Z,6.91
2022-11-07T02:35:38.225Z,6.50
2022-11-07T02:47:38.663Z,5.81
2022-11-07T02:59:39.134Z,5.86
2022-11-07T03:11:39.588Z,5.72
2022-11-07T03:23:40.044Z,6.56
2022-11-07T03:35:40.485Z,5.58
2022-11-07T03:47:40.974Z,6.21
2022-11-07T03:59:41.399Z,5.80
2022-11-07T04:11:41.848Z,5.81
2022-11-07T04:23:42.297Z,5.82
2022-11-07T04:35:42.747Z,5.83
2022-11-07T04:47:43.231Z,5.89
2022-11-07T04:59:43.645Z,5.92
2022-11-07T05:11:44.083Z,5.94
2022-11-07T05:23:44.581Z,5.97
2022-11-07T05:35:45.014Z,5.92
2022-11-07T05:47:45.452Z,5.98
2022-11-07T05:59:45.902Z,5.94
2022-11-07T06:11:46.359Z,5.94
2022-11-07T06:23:46.831Z,6.01
2022-11-07T06:35:47.276Z,6.09
2022-11-07T06:47:47.746Z,6.24
2022-11-07T06:59:51.875Z,6.52
2022-11-07T07:11:48.678Z,6.61
2022-11-07T07:23:49.087Z,6.80
2022-11-07T07:35:49.537Z,6.92
2022-11-07T07:47:50.023Z,7.37
2022-11-07T07:59:50.462Z,7.61
2022-11-07T08:11:50.906Z,7.94
2022-11-07T08:23:51.374Z,8.21
2022-11-07T08:35:51.794Z,8.51
2022-11-07T08:47:52.256Z,8.86
2022-11-07T08:59:52.717Z,9.59
2022-11-07T09:11:53.177Z,9.72
2022-11-07T09:23:53.607Z,10.10
2022-11-07T09:35:54.096Z,10.69
2022-11-07T09:47:54.510Z,11.20
2022-11-07T09:59:54.969Z,11.41
2022-11-07T10:11:55.440Z,13.69
2022-11-07T10:23:55.889Z,16.14
2022-11-07T10:35:56.307Z,17.09
2022-11-07T10:47:56.780Z,18.82
2022-11-07T10:59:57.262Z,19.28
2022-11-07T11:11:57.738Z,18.42
2022-11-07T11:23:58.177Z,23.93
2022-11-07T11:35:58.604Z,26.93
2022-11-07T11:47:59.089Z,26.88
2022-11-07T11:59:59.522Z,27.85
2022-11-07T12:12:00.000Z,27.96
2022-11-07T12:24:00.416Z,27.88
2022-11-07T12:36:00.894Z,27.45
2022-11-07T12:48:01.410Z,19.91
2022-11-07T13:00:01.801Z,17.71
2022-11-07T13:12:02.246Z,17.07
2022-11-07T13:24:02.731Z,15.88
2022-11-07T13:36:03.229Z,16.23
2022-11-07T13:48:03.631Z,15.40
2022-11-07T14:00:04.129Z,13.60
2022-11-07T14:12:04.520Z,13.50
2022-11-07T14:24:05.039Z,13.09
2022-11-07T14:36:05.578Z,12.77
2022-11-07T14:48:05.904Z,12.24
2022-11-07T15:00:06.377Z,11.84
2022-11-07T15:12:06.813Z,11.32
2022-11-07T15:24:07.286Z,10.88
2022-11-07T15:36:07.724Z,10.39
2022-11-07T15:48:08.170Z,9.63
2022-11-07T16:00:08.688Z,9.58
2022-11-07T16:12:09.103Z,9.19
2022-11-07T16:24:09.554Z,8.84
2022-11-07T16:36:10.009Z,8.25
2022-11-07T16:48:10.454Z,8.28
2022-11-07T17:00:10.906Z,7.99
2022-11-07T17:12:11.343Z,7.62
2022-11-07T17:24:11.803Z,7.40
2022-11-07T17:36:12.260Z,7.30
2022-11-07T17:48:12.708Z,7.07
2022-11-07T18:00:13.189Z,6.90
2022-11-07T18:12:13.616Z,6.72
2022-11-07T18:24:14.075Z,6.52
2022-11-07T18:36:14.531Z,6.26
2022-11-07T18:48:15.263Z,6.11
2022-11-07T19:00:15.426Z,6.50
2022-11-07T19:12:15.906Z,6.43
2022-11-07T19:24:16.452Z,6.27
2022-11-07T19:36:16.763Z,6.64
2022-11-07T19:48:17.242Z,7.45
2022-11-07T20:00:17.736Z,7.13
2022-11-07T20:12:18.193Z,7.25
2022-11-07T20:24:18.635Z,7.46
2022-11-07T20:36:19.076Z,7.79
2022-11-07T20:48:19.884Z,8.82
2022-11-07T21:00:19.983Z,9.07
2022-11-07T21:12:20.416Z,9.27
2022-11-07T21:24:20.863Z,9.03
2022-11-07T21:36:21.344Z,8.90
2022-11-07T21:48:21.783Z,8.48
2022-11-07T22:00:22.233Z,8.08
2022-11-07T22:12:22.671Z,7.61
2022-11-07T22:24:23.130Z,7.16
2022-11-07T22:36:23.579Z,6.91
2022-11-07T22:48:24.017Z,6.52
2022-11-07T23:00:24.501Z,6.09
2022-11-07T23:12:24.920Z,5.88
2022-11-07T23:24:25.370Z,5.87
2022-11-07T23:36:25.806Z,5.53
2022-11-07T23:48:26.282Z,5.46
